North Springs, Georgia
Current Conditions -  °F | °C
As of 8:53 AM on Sunday 23 Nov 2014 (Local Time) from KPDK Reporting Station
Haze Haze  
Wind Chill: 43°   Ceiling: 300
Heat Index: 46°   Visibility: 1.5mi
Dew Point: 44°   Wind: 6mph
Humidity: 93%   Direction: 70°ENE
Pressure: 30.02"   Gusts: NA
Location:  33.9435°N, 84.3186°W
Report Text: KPDK 231353Z 07005KT 1 1/2SM BR OVC003 08/07 A3002 RMK AO2 SFC VIS 5 RAE52 SLP171 P0008 T00780067
Loading
Personal Weather Stations






























Interactive Weather Map New forecast layout! Learn more

10-Day Weather Forecast

Advertisements
Track Severe Weather on mobile